createdAt,value
2023-02-22T00:01:02.993Z,4.10
2023-02-22T00:03:35.138Z,3.45
2023-02-22T00:06:05.032Z,8.88
2023-02-22T00:08:34.399Z,4.78
2023-02-22T00:11:04.195Z,6.40
2023-02-22T00:13:31.650Z,5.53
2023-02-22T00:16:00.264Z,6.93
2023-02-22T00:18:28.746Z,5.32
2023-02-22T00:21:00.392Z,4.13
2023-02-22T00:23:29.689Z,5.40
2023-02-22T00:25:58.508Z,3.05
2023-02-22T00:28:25.555Z,4.65
2023-02-22T00:30:54.929Z,3.55
2023-02-22T00:33:22.856Z,3.58
2023-02-22T00:35:49.955Z,4.35
2023-02-22T00:38:19.201Z,3.45
2023-02-22T00:40:46.358Z,3.42
2023-02-22T00:43:13.572Z,4.53
2023-02-22T00:45:41.107Z,4.47
2023-02-22T00:48:08.728Z,4.65
2023-02-22T00:50:35.956Z,4.43
2023-02-22T00:53:04.829Z,4.60
2023-02-22T00:55:35.344Z,4.30
2023-02-22T00:58:03.211Z,5.13
2023-02-22T01:00:39.203Z,3.60
2023-02-22T01:03:10.681Z,3.80
2023-02-22T01:05:38.364Z,6.40
2023-02-22T01:08:07.059Z,5.47
2023-02-22T01:10:34.948Z,3.00
2023-02-22T01:13:04.995Z,5.25
2023-02-22T01:15:31.831Z,3.00
2023-02-22T01:17:59.853Z,4.32
2023-02-22T01:20:27.875Z,3.90
2023-02-22T01:22:57.082Z,4.45
2023-02-22T01:25:30.629Z,4.22
2023-02-22T01:27:59.343Z,5.53
2023-02-22T01:30:35.446Z,5.88
2023-02-22T01:33:04.291Z,5.38
2023-02-22T01:35:35.087Z,5.13
2023-02-22T01:38:02.124Z,5.18
2023-02-22T01:40:33.943Z,3.95
2023-02-22T01:43:26.238Z,5.85
2023-02-22T01:46:00.741Z,4.10
2023-02-22T01:48:37.224Z,5.03
2023-02-22T01:51:12.436Z,5.32
2023-02-22T01:53:42.282Z,5.38
2023-02-22T01:56:09.944Z,4.55
2023-02-22T01:58:40.232Z,7.18
2023-02-22T02:01:08.240Z,4.57
2023-02-22T02:03:38.579Z,4.63
2023-02-22T02:06:11.892Z,4.28
2023-02-22T02:11:29.667Z,4.20
2023-02-22T02:14:00.071Z,5.90
2023-02-22T02:16:41.940Z,4.78
2023-02-22T02:19:36.331Z,6.97
2023-02-22T02:22:26.526Z,5.60
2023-02-22T02:25:05.292Z,5.35
2023-02-22T02:27:52.377Z,4.65
2023-02-22T02:30:49.939Z,5.28
2023-02-22T02:33:31.686Z,7.47
2023-02-22T02:36:06.015Z,5.38
2023-02-22T02:39:01.670Z,5.10
2023-02-22T02:41:40.285Z,5.22
2023-02-22T02:44:12.452Z,4.70
2023-02-22T02:46:45.700Z,7.43
2023-02-22T02:51:46.053Z,4.10
2023-02-22T02:54:14.774Z,6.53
2023-02-22T02:56:43.688Z,6.78
2023-02-22T02:59:25.252Z,8.65
2023-02-22T03:02:13.675Z,6.03
2023-02-22T03:05:08.462Z,6.82
2023-02-22T03:08:08.285Z,6.30
2023-02-22T03:11:15.437Z,6.13
2023-02-22T03:14:33.299Z,5.57
2023-02-22T03:17:26.213Z,7.38
2023-02-22T03:20:04.996Z,7.07
2023-02-22T03:22:53.407Z,4.70
2023-02-22T03:25:34.321Z,5.07
2023-02-22T03:28:07.402Z,6.05
2023-02-22T03:30:50.580Z,5.50
2023-02-22T03:33:37.430Z,4.75
2023-02-22T03:36:28.428Z,3.55
2023-02-22T03:38:58.296Z,6.07
2023-02-22T03:41:27.016Z,4.35
2023-02-22T03:44:09.433Z,4.18
2023-02-22T03:46:38.974Z,7.33
2023-02-22T03:49:29.889Z,3.95
2023-02-22T03:51:58.205Z,5.00
2023-02-22T03:54:27.461Z,4.32
2023-02-22T03:56:58.346Z,5.78
2023-02-22T03:59:27.702Z,5.30
2023-02-22T04:01:55.548Z,5.97
2023-02-22T04:04:24.008Z,5.85
2023-02-22T04:06:52.714Z,4.15
2023-02-22T04:09:21.237Z,4.55
2023-02-22T04:11:48.855Z,4.40
2023-02-22T04:14:15.807Z,3.33
2023-02-22T04:16:42.910Z,6.13
2023-02-22T04:19:10.717Z,5.10
2023-02-22T04:21:38.767Z,5.90
2023-02-22T04:24:08.696Z,5.22
2023-02-22T04:26:35.687Z,7.20
2023-02-22T04:29:04.420Z,4.45
2023-02-22T04:31:37.296Z,7.15
2023-02-22T04:34:04.670Z,6.20
2023-02-22T04:36:35.076Z,8.13
2023-02-22T04:39:02.059Z,12.57
2023-02-22T04:41:31.582Z,17.88
2023-02-22T04:43:58.563Z,18.33
2023-02-22T04:46:26.928Z,17.50
2023-02-22T04:48:54.428Z,19.65
2023-02-22T04:51:24.902Z,13.23
2023-02-22T04:54:09.204Z,12.60
2023-02-22T04:56:39.541Z,13.15
2023-02-22T04:59:06.335Z,9.85
2023-02-22T05:01:34.730Z,13.75
2023-02-22T05:04:06.688Z,7.80
2023-02-22T05:06:33.799Z,15.50
2023-02-22T05:09:00.636Z,12.45
2023-02-22T05:11:29.119Z,11.25
2023-02-22T05:13:55.987Z,17.63
2023-02-22T05:16:22.947Z,15.77
2023-02-22T05:18:49.774Z,14.48
2023-02-22T05:21:16.774Z,8.77
2023-02-22T05:23:43.672Z,10.57
2023-02-22T05:26:11.627Z,12.07
2023-02-22T05:28:38.746Z,10.95
2023-02-22T05:31:07.516Z,8.15
2023-02-22T05:33:34.736Z,9.80
2023-02-22T05:36:02.086Z,9.60
2023-02-22T05:38:28.959Z,7.97
2023-02-22T05:40:56.984Z,11.65
2023-02-22T05:43:23.751Z,11.85
2023-02-22T05:45:50.646Z,9.73
2023-02-22T05:48:17.445Z,10.65
2023-02-22T05:50:44.177Z,9.25
2023-02-22T05:53:11.191Z,8.10
2023-02-22T05:55:37.968Z,11.02
2023-02-22T05:58:06.018Z,11.50
2023-02-22T06:00:33.081Z,7.82
2023-02-22T06:03:07.958Z,12.23
2023-02-22T06:05:35.727Z,8.15
2023-02-22T06:08:04.264Z,11.65
2023-02-22T06:10:31.065Z,8.38
2023-02-22T06:12:58.383Z,10.18
2023-02-22T06:15:26.280Z,9.98
2023-02-22T06:17:53.793Z,13.35
2023-02-22T06:20:23.490Z,9.77
2023-02-22T06:22:51.715Z,9.77
2023-02-22T06:25:21.201Z,7.35
2023-02-22T06:27:48.194Z,7.57
2023-02-22T06:30:16.538Z,9.05
2023-02-22T06:32:43.362Z,7.07
2023-02-22T06:35:10.186Z,12.25
2023-02-22T06:37:36.900Z,8.93
2023-02-22T06:40:05.763Z,10.13
2023-02-22T06:42:32.981Z,9.07
2023-02-22T06:44:59.796Z,11.30
2023-02-22T06:47:26.870Z,12.25
2023-02-22T06:49:57.921Z,13.40
2023-02-22T06:52:25.603Z,10.05
2023-02-22T06:54:52.940Z,11.88
2023-02-22T06:57:19.835Z,12.20
2023-02-22T06:59:46.570Z,13.10
2023-02-22T07:02:13.749Z,12.23
2023-02-22T07:04:43.250Z,10.60
2023-02-22T07:07:10.346Z,13.05
2023-02-22T07:09:37.148Z,9.98
2023-02-22T07:12:04.410Z,15.60
2023-02-22T07:14:31.228Z,14.38
2023-02-22T07:16:57.979Z,10.07
2023-02-22T07:19:24.875Z,12.02
2023-02-22T07:21:58.054Z,14.20
2023-02-22T07:24:25.682Z,12.90
2023-02-22T07:26:53.975Z,10.48
2023-02-22T07:29:22.579Z,12.60
2023-02-22T07:31:49.618Z,11.18
2023-02-22T07:34:16.529Z,9.13
2023-02-22T07:36:43.545Z,8.38
2023-02-22T07:39:11.236Z,10.98
2023-02-22T07:41:38.127Z,7.43
2023-02-22T07:44:14.392Z,7.75
2023-02-22T07:46:41.157Z,11.80
2023-02-22T07:49:07.887Z,9.38
2023-02-22T07:51:34.605Z,9.80
2023-02-22T07:54:01.330Z,8.60
2023-02-22T07:56:28.050Z,10.50
2023-02-22T07:58:54.792Z,10.02
2023-02-22T08:01:21.590Z,8.82
2023-02-22T08:03:48.419Z,9.70
2023-02-22T08:06:16.558Z,10.10
2023-02-22T08:08:43.386Z,10.63
2023-02-22T08:11:10.316Z,10.57
2023-02-22T08:13:38.347Z,9.43
2023-02-22T08:16:05.454Z,9.40
2023-02-22T08:18:32.389Z,10.32
2023-02-22T08:20:59.122Z,7.82
2023-02-22T08:23:27.404Z,11.68
2023-02-22T08:25:54.465Z,7.28
2023-02-22T08:28:23.665Z,10.50
2023-02-22T08:30:51.102Z,16.45
2023-02-22T08:33:19.801Z,8.80
2023-02-22T08:35:51.978Z,10.23
2023-02-22T08:38:27.406Z,9.73
2023-02-22T08:40:54.494Z,7.05
2023-02-22T08:43:22.350Z,9.32
2023-02-22T08:45:49.392Z,8.95
2023-02-22T08:48:16.749Z,7.88
2023-02-22T08:50:44.521Z,13.75
2023-02-22T08:53:13.991Z,10.63
2023-02-22T08:55:42.132Z,14.23
2023-02-22T08:58:10.175Z,14.10
2023-02-22T09:00:39.279Z,9.25
2023-02-22T09:03:13.383Z,16.98
2023-02-22T09:05:40.955Z,16.30
2023-02-22T09:08:07.833Z,17.58
2023-02-22T09:10:35.250Z,12.48
2023-02-22T09:13:04.011Z,17.45
2023-02-22T09:15:31.944Z,17.80
2023-02-22T09:17:59.580Z,13.85
2023-02-22T09:20:28.369Z,11.50
2023-02-22T09:22:55.541Z,16.90
2023-02-22T09:25:23.313Z,12.10
2023-02-22T09:27:52.267Z,17.33
2023-02-22T09:30:34.453Z,15.05
2023-02-22T09:33:11.609Z,10.88
2023-02-22T09:35:42.558Z,11.02
2023-02-22T09:38:11.380Z,8.23
2023-02-22T09:40:45.250Z,9.43
2023-02-22T09:43:24.758Z,9.57
2023-02-22T09:46:25.574Z,9.90
2023-02-22T09:49:01.180Z,9.02
2023-02-22T09:51:35.896Z,8.15
2023-02-22T09:54:06.525Z,8.38
2023-02-22T09:56:34.580Z,9.07
2023-02-22T09:59:06.061Z,8.98
2023-02-22T10:01:39.355Z,8.50
2023-02-22T10:04:32.242Z,7.25
2023-02-22T10:07:06.829Z,7.97
2023-02-22T10:09:38.732Z,9.18
2023-02-22T10:12:24.886Z,7.55
2023-02-22T10:15:16.178Z,9.65
2023-02-22T10:17:49.274Z,4.30
2023-02-22T10:20:34.702Z,4.57
2023-02-22T10:23:01.482Z,5.40
2023-02-22T10:25:35.070Z,8.55
2023-02-22T10:28:18.169Z,5.85
2023-02-22T10:31:01.422Z,9.90
2023-02-22T10:33:32.036Z,6.75
2023-02-22T10:35:59.201Z,6.47
2023-02-22T10:38:32.536Z,8.27
2023-02-22T10:41:11.391Z,6.78
2023-02-22T10:43:42.983Z,5.60
2023-02-22T10:46:13.974Z,4.25
2023-02-22T10:48:42.604Z,4.10
2023-02-22T10:51:11.157Z,7.78
2023-02-22T10:53:39.399Z,6.70
2023-02-22T10:56:20.797Z,8.80
2023-02-22T10:58:57.725Z,5.93
2023-02-22T11:01:32.683Z,6.65
2023-02-22T11:04:13.426Z,7.28
2023-02-22T11:06:49.107Z,10.98
2023-02-22T11:09:24.158Z,10.38
2023-02-22T11:12:11.473Z,6.30
2023-02-22T11:14:39.293Z,6.55
2023-02-22T11:17:13.996Z,8.73
2023-02-22T11:19:48.475Z,10.82
2023-02-22T11:22:26.467Z,11.90
2023-02-22T11:24:57.613Z,8.73
2023-02-22T11:27:38.690Z,11.75
2023-02-22T11:30:26.917Z,6.88
2023-02-22T11:33:00.153Z,6.95
2023-02-22T11:35:32.035Z,6.47
2023-02-22T11:38:21.385Z,9.40
2023-02-22T11:41:08.297Z,7.40
2023-02-22T11:43:35.663Z,8.57
2023-02-22T11:46:12.045Z,9.10
2023-02-22T11:48:44.968Z,9.05
2023-02-22T11:51:23.727Z,7.82
2023-02-22T11:54:07.145Z,7.38
2023-02-22T11:59:37.749Z,7.30
2023-02-22T12:02:58.137Z,6.97
2023-02-22T12:05:42.980Z,8.77
2023-02-22T12:08:29.618Z,7.90
2023-02-22T12:11:03.770Z,7.85
2023-02-22T12:16:36.726Z,7.18
2023-02-22T12:19:30.941Z,6.10
2023-02-22T12:22:03.105Z,7.95
2023-02-22T12:24:50.057Z,6.68
2023-02-22T12:27:28.232Z,10.73
2023-02-22T12:30:06.780Z,8.25
2023-02-22T12:33:04.227Z,7.35
2023-02-22T12:35:35.420Z,5.97
2023-02-22T12:38:24.489Z,9.93
2023-02-22T12:41:14.047Z,8.00
2023-02-22T12:44:09.527Z,8.02
2023-02-22T12:46:57.311Z,7.00
2023-02-22T12:49:29.957Z,7.30
2023-02-22T12:52:21.943Z,8.10
2023-02-22T12:54:56.321Z,9.75
2023-02-22T12:57:42.784Z,7.60
2023-02-22T13:00:23.279Z,11.07
2023-02-22T13:03:18.877Z,8.02
2023-02-22T13:05:52.011Z,11.88
2023-02-22T13:11:33.060Z,5.63
2023-02-22T13:14:38.295Z,11.80
2023-02-22T13:17:29.750Z,7.60
2023-02-22T13:20:02.632Z,7.57
2023-02-22T13:22:35.386Z,8.35
2023-02-22T13:25:02.335Z,8.50
2023-02-22T13:27:43.194Z,9.45
2023-02-22T13:30:22.413Z,9.35
2023-02-22T13:33:22.001Z,8.57
2023-02-22T13:36:15.055Z,13.00
2023-02-22T13:38:51.029Z,15.00
2023-02-22T13:41:46.307Z,6.55
2023-02-22T13:44:33.288Z,6.57
2023-02-22T13:47:34.012Z,9.82
2023-02-22T13:50:03.858Z,10.50
2023-02-22T13:52:34.549Z,10.35
2023-02-22T13:55:11.384Z,9.63
2023-02-22T13:57:48.703Z,8.88
2023-02-22T14:00:15.461Z,9.90
2023-02-22T14:03:08.266Z,9.20
2023-02-22T14:05:41.678Z,10.30
2023-02-22T14:08:31.716Z,12.20
2023-02-22T14:10:59.666Z,10.82
2023-02-22T14:13:28.504Z,8.82
2023-02-22T14:16:02.529Z,8.27
2023-02-22T14:18:39.174Z,9.40
2023-02-22T14:21:13.566Z,7.03
2023-02-22T14:23:44.376Z,8.68
2023-02-22T14:26:20.381Z,9.95
2023-02-22T14:28:58.884Z,9.40
2023-02-22T14:31:37.308Z,9.10
2023-02-22T14:34:18.043Z,10.75
2023-02-22T14:36:47.695Z,7.45
2023-02-22T14:39:14.441Z,9.90
2023-02-22T14:41:54.301Z,10.57
2023-02-22T14:44:26.608Z,13.48
2023-02-22T14:46:57.003Z,7.77
2023-02-22T14:49:28.564Z,10.15
2023-02-22T14:52:03.931Z,8.38
2023-02-22T14:54:58.895Z,7.75
2023-02-22T14:57:53.803Z,7.47
2023-02-22T15:00:45.987Z,6.07
2023-02-22T15:03:32.766Z,7.28
2023-02-22T15:06:16.460Z,5.32
2023-02-22T15:08:49.706Z,9.13
2023-02-22T15:11:45.629Z,9.65
2023-02-22T15:14:28.059Z,11.43
2023-02-22T15:16:59.087Z,10.07
2023-02-22T15:19:37.650Z,7.50
2023-02-22T15:22:09.303Z,14.30
2023-02-22T15:24:37.848Z,7.57
2023-02-22T15:27:15.265Z,8.55
2023-02-22T15:29:47.440Z,12.75
2023-02-22T15:32:38.113Z,13.80
2023-02-22T15:35:28.982Z,13.45
2023-02-22T15:38:06.521Z,23.05
2023-02-22T15:40:34.791Z,11.68
2023-02-22T15:43:04.539Z,9.10
2023-02-22T15:45:34.657Z,11.85
2023-02-22T15:48:01.724Z,11.20
2023-02-22T15:50:33.307Z,12.30
2023-02-22T15:53:41.736Z,11.25
2023-02-22T15:56:36.203Z,12.15
2023-02-22T15:59:22.609Z,11.80
2023-02-22T16:01:53.263Z,13.70
2023-02-22T16:04:26.485Z,8.73
2023-02-22T16:07:03.443Z,11.30
2023-02-22T16:09:30.431Z,8.85
2023-02-22T16:12:25.189Z,10.93
2023-02-22T16:14:54.678Z,11.73
2023-02-22T16:17:24.900Z,11.73
2023-02-22T16:19:53.206Z,17.00
2023-02-22T16:22:28.193Z,16.52
2023-02-22T16:25:11.848Z,10.95
2023-02-22T16:27:47.490Z,12.65
2023-02-22T16:30:33.085Z,13.70
2023-02-22T16:33:05.597Z,10.75
2023-02-22T16:35:35.443Z,11.05
2023-02-22T16:38:04.797Z,13.77
2023-02-22T16:40:38.519Z,11.90
2023-02-22T16:43:12.730Z,13.93
2023-02-22T16:45:42.285Z,12.95
2023-02-22T16:48:26.570Z,15.10
2023-02-22T16:50:55.545Z,16.13
2023-02-22T16:53:25.290Z,14.32
2023-02-22T16:55:57.701Z,18.30
2023-02-22T16:58:29.394Z,14.63
2023-02-22T17:00:57.503Z,13.27
2023-02-22T17:03:25.485Z,14.88
2023-02-22T17:05:52.824Z,17.05
2023-02-22T17:08:19.591Z,18.27
2023-02-22T17:10:51.632Z,20.27
2023-02-22T17:13:25.018Z,17.70
2023-02-22T17:15:55.008Z,19.42
2023-02-22T17:18:24.611Z,17.15
2023-02-22T17:20:53.109Z,21.83
2023-02-22T17:23:20.295Z,19.88
2023-02-22T17:26:05.173Z,20.08
2023-02-22T17:28:32.364Z,20.98
2023-02-22T17:31:02.070Z,25.05
2023-02-22T17:33:33.040Z,25.38
2023-02-22T17:36:02.184Z,22.75
2023-02-22T17:38:30.927Z,21.50
2023-02-22T17:40:59.306Z,22.08
2023-02-22T17:43:28.032Z,25.27
2023-02-22T17:45:55.531Z,23.83
2023-02-22T17:48:24.130Z,23.13
2023-02-22T17:50:51.741Z,21.73
2023-02-22T17:53:21.816Z,25.63
2023-02-22T17:55:49.578Z,22.45
2023-02-22T17:58:17.079Z,21.70
2023-02-22T18:00:47.520Z,22.92
2023-02-22T18:03:21.205Z,19.55
2023-02-22T18:05:56.005Z,19.92
2023-02-22T18:08:24.620Z,22.85
2023-02-22T18:10:59.044Z,19.80
2023-02-22T18:13:27.902Z,20.00
2023-02-22T18:16:00.231Z,17.85
2023-02-22T18:18:27.453Z,20.08
2023-02-22T18:20:59.935Z,23.02
2023-02-22T18:23:28.747Z,24.55
2023-02-22T18:26:09.530Z,17.10
2023-02-22T18:28:37.579Z,21.38
2023-02-22T18:31:13.458Z,19.15
2023-02-22T18:33:41.335Z,22.80
2023-02-22T18:36:11.157Z,20.90
2023-02-22T18:38:42.944Z,18.70
2023-02-22T18:41:12.223Z,22.00
2023-02-22T18:43:46.472Z,16.60
2023-02-22T18:46:31.037Z,18.58
2023-02-22T18:48:59.811Z,21.17
2023-02-22T18:51:29.842Z,18.25
2023-02-22T18:54:01.172Z,20.85
2023-02-22T18:56:33.979Z,19.00
2023-02-22T18:59:03.270Z,22.35
2023-02-22T19:01:35.678Z,20.55
2023-02-22T19:04:02.620Z,19.50
2023-02-22T19:06:29.504Z,23.25
2023-02-22T19:08:56.297Z,16.83
2023-02-22T19:11:24.739Z,17.90
2023-02-22T19:13:54.102Z,22.02
2023-02-22T19:16:22.930Z,15.93
2023-02-22T19:18:52.506Z,18.25
2023-02-22T19:21:20.329Z,18.52
2023-02-22T19:23:48.572Z,20.08
2023-02-22T19:26:18.817Z,22.88
2023-02-22T19:28:47.279Z,15.85
2023-02-22T19:31:16.384Z,19.90
2023-02-22T19:33:44.326Z,22.02
2023-02-22T19:36:13.294Z,17.92
2023-02-22T19:38:40.549Z,18.30
2023-02-22T19:41:13.637Z,19.13
2023-02-22T19:43:41.640Z,23.58
2023-02-22T19:46:09.410Z,19.30
2023-02-22T19:48:38.598Z,17.85
2023-02-22T19:51:10.955Z,18.58
2023-02-22T19:53:39.623Z,17.37
2023-02-22T19:56:11.943Z,17.60
2023-02-22T19:58:40.651Z,16.20
2023-02-22T20:01:25.402Z,23.08
2023-02-22T20:04:00.422Z,18.50
2023-02-22T20:06:41.700Z,16.48
2023-02-22T20:09:19.880Z,19.77
2023-02-22T20:11:47.952Z,17.65
2023-02-22T20:14:23.396Z,19.60
2023-02-22T20:16:55.478Z,15.13
2023-02-22T20:19:26.710Z,19.60
2023-02-22T20:21:55.886Z,16.25
2023-02-22T20:24:24.031Z,16.77
2023-02-22T20:26:53.794Z,18.58
2023-02-22T20:29:21.395Z,15.80
2023-02-22T20:31:53.578Z,18.02
2023-02-22T20:34:20.421Z,18.13
2023-02-22T20:36:47.148Z,15.48
2023-02-22T20:39:14.612Z,17.10
2023-02-22T20:41:46.416Z,16.05
2023-02-22T20:44:15.212Z,18.85
2023-02-22T20:46:43.075Z,15.25
2023-02-22T20:49:17.205Z,18.33
2023-02-22T20:51:45.511Z,16.25
2023-02-22T20:54:13.216Z,16.25
2023-02-22T20:56:43.554Z,15.57
2023-02-22T20:59:13.075Z,18.10
2023-02-22T21:01:40.279Z,15.00
2023-02-22T21:04:10.094Z,16.45
2023-02-22T21:06:37.882Z,16.67
2023-02-22T21:09:08.925Z,15.77
2023-02-22T21:11:36.212Z,19.85
2023-02-22T21:14:03.420Z,16.67
2023-02-22T21:16:32.865Z,16.40
2023-02-22T21:19:02.485Z,19.05
2023-02-22T21:21:30.864Z,18.65
2023-02-22T21:24:02.839Z,16.45
2023-02-22T21:26:32.332Z,20.33
2023-02-22T21:29:03.406Z,17.63
2023-02-22T21:31:31.744Z,18.48
2023-02-22T21:34:00.203Z,17.02
2023-02-22T21:36:28.383Z,22.85
2023-02-22T21:38:57.824Z,20.90
2023-02-22T21:41:30.153Z,18.10
2023-02-22T21:43:58.818Z,15.88
2023-02-22T21:46:27.368Z,17.13
2023-02-22T21:48:54.292Z,16.58
2023-02-22T21:51:32.642Z,16.33
2023-02-22T21:54:05.786Z,17.60
2023-02-22T21:56:36.628Z,15.82
2023-02-22T21:59:07.649Z,15.57
2023-02-22T22:01:47.160Z,14.77
2023-02-22T22:04:19.818Z,16.20
2023-02-22T22:06:52.477Z,13.13
2023-02-22T22:09:21.948Z,15.85
2023-02-22T22:11:53.560Z,20.35
2023-02-22T22:14:24.185Z,14.73
2023-02-22T22:16:53.093Z,13.60
2023-02-22T22:19:20.729Z,16.98
2023-02-22T22:21:49.157Z,16.75
2023-02-22T22:24:16.008Z,15.70
2023-02-22T22:26:44.057Z,14.73
2023-02-22T22:29:11.528Z,17.30
2023-02-22T22:31:38.696Z,21.33
2023-02-22T22:34:06.564Z,19.40
2023-02-22T22:36:34.530Z,20.10
2023-02-22T22:39:01.409Z,18.45
2023-02-22T22:41:28.343Z,17.25
2023-02-22T22:43:55.264Z,15.48
2023-02-22T22:46:22.157Z,20.42
2023-02-22T22:48:48.900Z,19.05
2023-02-22T22:51:20.198Z,20.70
2023-02-22T22:53:48.977Z,16.70
2023-02-22T22:56:21.267Z,17.60
2023-02-22T22:58:53.024Z,22.73
2023-02-22T23:01:27.630Z,17.73
2023-02-22T23:04:02.115Z,19.42
2023-02-22T23:06:33.140Z,17.52
2023-02-22T23:09:18.714Z,15.70
2023-02-22T23:12:19.539Z,20.98
2023-02-22T23:14:47.113Z,18.30
2023-02-22T23:17:16.253Z,18.17
2023-02-22T23:19:45.172Z,21.52
2023-02-22T23:22:14.575Z,18.73
2023-02-22T23:24:44.616Z,20.65
2023-02-22T23:27:12.387Z,19.02
2023-02-22T23:29:41.224Z,19.50
2023-02-22T23:32:08.991Z,20.55
2023-02-22T23:34:39.952Z,22.25
2023-02-22T23:37:10.870Z,18.33
2023-02-22T23:39:38.293Z,21.85
2023-02-22T23:42:05.259Z,20.90
2023-02-22T23:44:32.509Z,20.45
2023-02-22T23:46:59.487Z,21.88
2023-02-22T23:49:32.961Z,22.65
2023-02-22T23:51:59.885Z,18.60
2023-02-22T23:54:26.691Z,18.23
2023-02-22T23:56:57.074Z,19.48
2023-02-22T23:59:26.725Z,20.05
